Muzaffargarh Weather



Muzaffargarh's Current Weather

Temprature 27.01o clear sky

clear sky

Rain: 0 %

Min Temprature27.01o
Max Temprature27.01o
Humidity79
Wind Speed3.47 m/h
Sun Rise06:05:29
Sun Set18:07:52
Current Time: 26-Sep-2022 07:19:58
Lat/Lon: 30.0754, 71.1921




Muzaffargarh's Geo Location



Muzaffargarh's Weather Forecast

Time Overall Temp Min Temp Max Temp Humidity Wind Speed Rain
26-Sep-2022 (Mon)
08:00:00 clear sky 27.010 26.650 27.010 70 5.02 m/h 0 %
11:00:00 clear sky 28.790 28.790 32.350 62 4.29 m/h 0 %
14:00:00 clear sky 32.600 32.600 35.390 46 2.92 m/h 0 %
17:00:00 clear sky 35.220 35.220 35.220 35 1.51 m/h 0 %
20:00:00 clear sky 31.250 31.250 31.250 43 1.92 m/h 0 %
23:00:00 clear sky 30.010 30.010 30.010 46 1.95 m/h 0 %
27-Sep-2022 (Tue)
02:00:00 clear sky 27.980 27.980 27.980 44 2.85 m/h 0 %
05:00:00 clear sky 26.820 26.820 26.820 43 2.84 m/h 0 %
08:00:00 clear sky 29.500 29.500 29.500 39 3.5 m/h 0 %
11:00:00 clear sky 35.640 35.640 35.640 28 3.79 m/h 0 %
14:00:00 clear sky 38.160 38.160 38.160 22 3.74 m/h 0 %
17:00:00 clear sky 36.760 36.760 36.760 24 3.98 m/h 0 %
20:00:00 clear sky 30.950 30.950 30.950 32 4.53 m/h 0 %
23:00:00 clear sky 29.840 29.840 29.840 34 4.67 m/h 0 %
28-Sep-2022 (Wed)
02:00:00 clear sky 28.770 28.770 28.770 35 4.97 m/h 0 %
05:00:00 clear sky 27.460 27.460 27.460 37 4.56 m/h 0 %
08:00:00 clear sky 29.730 29.730 29.730 42 5.47 m/h 0 %
11:00:00 clear sky 36.410 36.410 36.410 27 6 m/h 0 %
14:00:00 clear sky 38.350 38.350 38.350 21 5.75 m/h 0 %
17:00:00 clear sky 35.970 35.970 35.970 25 5.24 m/h 0 %
20:00:00 clear sky 30.670 30.670 30.670 30 4.49 m/h 0 %
23:00:00 clear sky 28.890 28.890 28.890 25 4.24 m/h 0 %
29-Sep-2022 (Thu)
02:00:00 clear sky 27.620 27.620 27.620 28 4.94 m/h 0 %
05:00:00 clear sky 27.010 27.010 27.010 40 4.98 m/h 0 %
08:00:00 clear sky 29.600 29.600 29.600 46 6.14 m/h 0 %
11:00:00 clear sky 35.810 35.810 35.810 27 6.79 m/h 0 %
14:00:00 clear sky 37.730 37.730 37.730 21 5.61 m/h 0 %
17:00:00 clear sky 35.620 35.620 35.620 24 4.4 m/h 0 %
20:00:00 clear sky 30.280 30.280 30.280 28 3.98 m/h 0 %
23:00:00 clear sky 28.280 28.280 28.280 27 3.74 m/h 0 %
30-Sep-2022 (Fri)
02:00:00 clear sky 26.690 26.690 26.690 34 4.17 m/h 0 %
05:00:00 clear sky 25.980 25.980 25.980 41 4.5 m/h 0 %
08:00:00 clear sky 29.300 29.300 29.300 46 5.89 m/h 0 %
11:00:00 clear sky 36.200 36.200 36.200 28 7.09 m/h 0 %
14:00:00 clear sky 38.260 38.260 38.260 22 6.24 m/h 0 %
17:00:00 clear sky 36.010 36.010 36.010 24 4.96 m/h 0 %
20:00:00 clear sky 30.290 30.290 30.290 32 4.64 m/h 0 %
23:00:00 clear sky 28.980 28.980 28.980 36 4.82 m/h 0 %
01-Oct-2022 (Sat)
02:00:00 clear sky 27.720 27.720 27.720 39 5.18 m/h 0 %
05:00:00 clear sky 27.340 27.340 27.340 38 5.38 m/h 0 %

Famous Cities (61)